Time;durP1;ratioP1;P1;durP2;ratioP2;P2;SDS_P1;SDS_P2;PMS_P1;PMS_P2;Temp;Humidity;BMP_temperature;BMP_pressure;BME280_temperature;BME280_humidity;BME280_pressure;Samples;Min_cycle;Max_cycle;Signal;HPM_P1;HPM_P2
2021/12/02 00:00:48;;;;;;;;;;;6.40;99.90;;;;;;5120895;28;19911;-67
2021/12/02 00:03:14;;;;;;;;;;;6.40;99.90;;;;;;5120826;28;19988;-67
2021/12/02 00:05:40;;;;;;;;;;;6.40;99.90;;;;;;5120718;28;19911;-67
2021/12/02 00:08:06;;;;;;;;;;;6.30;99.90;;;;;;5120645;28;19915;-67
2021/12/02 00:10:34;;;;;;;;;;;6.20;99.90;;;;;;5120553;28;19912;-67
2021/12/02 00:13:00;;;;;;;;;;;6.20;99.90;;;;;;5119782;28;20266;-67
2021/12/02 00:15:35;;;;;;;;;;;6.30;99.90;;;;;;5120510;28;20187;-67
2021/12/02 00:23:28;;;;;;;;;;;6.40;99.90;;;;;;5120296;28;19907;-65
2021/12/02 00:25:58;;;;;;;;;;;6.50;99.90;;;;;;5119528;28;20187;-66
2021/12/02 00:28:25;;;;;;;;;;;6.60;99.90;;;;;;5120823;28;20002;-66
2021/12/02 00:30:53;;;;;;;;;;;6.70;99.90;;;;;;5120410;28;20191;-66
2021/12/02 00:33:21;;;;;;;;;;;6.80;99.90;;;;;;5120152;27;19908;-67
2021/12/02 00:35:47;;;;;;;;;;;6.80;99.90;;;;;;5120270;28;19908;-67
2021/12/02 00:38:14;;;;;;;;;;;6.70;99.90;;;;;;5120045;28;19912;-66
2021/12/02 00:40:40;;;;;;;;;;;6.80;99.90;;;;;;5119431;28;19976;-67
2021/12/02 00:43:06;;;;;;;;;;;6.90;99.90;;;;;;5119308;28;19916;-67
2021/12/02 00:45:32;;;;;;;;;;;6.90;99.90;;;;;;5119935;28;20311;-67
2021/12/02 00:48:00;;;;;;;;;;;7.00;99.90;;;;;;5119847;28;19919;-68
2021/12/02 00:50:26;;;;;;;;;;;6.80;99.90;;;;;;5119803;28;19920;-68
2021/12/02 00:52:53;;;;;;;;;;;6.60;99.90;;;;;;5119974;27;19911;-68
2021/12/02 00:55:19;;;;;;;;;;;6.40;99.90;;;;;;5119092;28;19973;-68
2021/12/02 00:57:45;;;;;;;;;;;6.40;99.90;;;;;;5119099;28;19915;-68
2021/12/02 01:00:11;;;;;;;;;;;6.50;99.90;;;;;;5119703;28;19942;-68
2021/12/02 01:02:37;;;;;;;;;;;6.50;99.90;;;;;;5119893;28;20310;-68
2021/12/02 01:05:04;;;;;;;;;;;6.50;99.90;;;;;;5118811;28;19911;-68
2021/12/02 01:07:29;;;;;;;;;;;6.30;99.90;;;;;;5119819;27;19923;-69
2021/12/02 01:09:56;;;;;;;;;;;6.40;99.90;;;;;;5119474;28;19911;-69
2021/12/02 01:12:22;;;;;;;;;;;6.50;99.90;;;;;;5119638;28;20196;-69
2021/12/02 01:14:48;;;;;;;;;;;6.30;99.90;;;;;;5119390;28;19937;-69
2021/12/02 01:17:14;;;;;;;;;;;6.20;99.90;;;;;;5119273;28;20276;-69
2021/12/02 01:19:40;;;;;;;;;;;6.20;99.90;;;;;;5119212;28;19911;-69
2021/12/02 01:22:06;;;;;;;;;;;6.20;99.90;;;;;;5119182;28;19953;-69
2021/12/02 01:24:32;;;;;;;;;;;6.20;99.90;;;;;;5119704;27;19907;-69
2021/12/02 01:26:59;;;;;;;;;;;6.20;99.90;;;;;;5119206;27;19922;-69
2021/12/02 01:29:25;;;;;;;;;;;6.20;99.90;;;;;;5118889;28;19950;-70
2021/12/02 01:31:53;;;;;;;;;;;6.20;99.90;;;;;;5118898;28;19968;-68
2021/12/02 01:34:23;;;;;;;;;;;6.20;99.90;;;;;;5118982;28;20183;-69
2021/12/02 01:36:50;;;;;;;;;;;6.40;99.90;;;;;;5118985;28;19994;-68
2021/12/02 01:39:16;;;;;;;;;;;6.40;99.90;;;;;;5117976;28;19912;-68
2021/12/02 01:41:47;;;;;;;;;;;6.30;99.90;;;;;;5118275;28;19919;-68
2021/12/02 01:44:14;;;;;;;;;;;6.30;99.90;;;;;;5118863;28;19954;-69
2021/12/02 01:46:44;;;;;;;;;;;6.20;99.90;;;;;;5117921;28;19911;-68
2021/12/02 01:49:11;;;;;;;;;;;6.10;99.90;;;;;;5118721;28;20199;-68
2021/12/02 01:51:39;;;;;;;;;;;6.30;99.90;;;;;;5117997;28;20296;-66
2021/12/02 01:54:07;;;;;;;;;;;6.40;99.90;;;;;;5117856;28;20254;-68
2021/12/02 01:56:46;;;;;;;;;;;6.40;99.90;;;;;;5117936;28;19961;-66
2021/12/02 01:59:22;;;;;;;;;;;6.40;99.90;;;;;;5118646;28;19911;-67
2021/12/02 02:01:52;;;;;;;;;;;6.30;99.90;;;;;;5117595;28;19908;-67
2021/12/02 02:04:19;;;;;;;;;;;6.40;99.90;;;;;;5118281;28;19912;-67
2021/12/02 02:06:46;;;;;;;;;;;6.40;99.90;;;;;;5118317;27;19923;-68
2021/12/02 02:09:12;;;;;;;;;;;6.30;99.90;;;;;;5116684;28;19907;-68
2021/12/02 02:11:38;;;;;;;;;;;6.40;99.90;;;;;;5118180;28;19977;-68
2021/12/02 02:14:07;;;;;;;;;;;6.20;99.90;;;;;;5118861;28;19917;-68
2021/12/02 02:16:33;;;;;;;;;;;6.20;99.90;;;;;;5118762;28;20184;-67
2021/12/02 02:18:59;;;;;;;;;;;6.10;99.90;;;;;;5118174;28;19926;-68
2021/12/02 02:21:25;;;;;;;;;;;6.00;99.90;;;;;;5118057;28;20196;-68
2021/12/02 02:23:58;;;;;;;;;;;5.90;99.90;;;;;;5117303;28;19970;-68
2021/12/02 02:26:33;;;;;;;;;;;5.90;99.90;;;;;;5118100;28;19919;-68
2021/12/02 02:28:59;;;;;;;;;;;5.80;99.90;;;;;;5118074;28;19959;-68
2021/12/02 02:31:27;;;;;;;;;;;5.90;99.90;;;;;;5117836;28;19922;-67
2021/12/02 02:33:53;;;;;;;;;;;5.80;99.90;;;;;;5118580;28;19938;-68
2021/12/02 02:36:21;;;;;;;;;;;5.70;99.90;;;;;;5117246;28;19911;-68
2021/12/02 02:39:00;;;;;;;;;;;5.70;99.90;;;;;;5117015;28;19923;-68
2021/12/02 02:41:27;;;;;;;;;;;5.60;99.90;;;;;;5117941;28;19961;-68
2021/12/02 02:43:56;;;;;;;;;;;5.50;99.90;;;;;;5117844;28;20312;-68
2021/12/02 02:46:24;;;;;;;;;;;5.40;99.90;;;;;;5117066;28;19998;-68
2021/12/02 02:48:50;;;;;;;;;;;5.30;99.90;;;;;;5117758;28;20023;-69
2021/12/02 02:51:16;;;;;;;;;;;5.50;99.90;;;;;;5117701;28;19955;-67
2021/12/02 02:53:42;;;;;;;;;;;5.40;99.90;;;;;;5117771;28;20196;-68
2021/12/02 02:56:14;;;;;;;;;;;5.60;99.90;;;;;;5117718;28;19915;-68
2021/12/02 03:09:05;;;;;;;;;;;5.70;99.90;;;;;;5117650;28;19919;-66
2021/12/02 03:11:40;;;;;;;;;;;5.70;99.90;;;;;;5116627;28;19916;-67
2021/12/02 03:14:15;;;;;;;;;;;5.80;99.90;;;;;;5116722;28;19929;-67
2021/12/02 03:16:44;;;;;;;;;;;5.80;99.90;;;;;;5117436;28;19951;-67
2021/12/02 03:19:30;;;;;;;;;;;5.80;99.90;;;;;;5118092;28;20263;-68
2021/12/02 03:21:56;;;;;;;;;;;5.80;99.90;;;;;;5103742;28;19980;-67
2021/12/02 03:24:23;;;;;;;;;;;5.80;99.90;;;;;;5120801;28;19941;-66
2021/12/02 03:26:49;;;;;;;;;;;5.70;99.90;;;;;;5121515;28;19969;-67
2021/12/02 03:29:15;;;;;;;;;;;5.70;99.90;;;;;;5121428;28;20280;-67
2021/12/02 03:31:41;;;;;;;;;;;5.70;99.90;;;;;;5121303;28;19911;-68
2021/12/02 03:34:08;;;;;;;;;;;5.60;99.90;;;;;;5120638;28;20057;-67
2021/12/02 03:36:34;;;;;;;;;;;5.60;99.90;;;;;;5121263;28;20283;-67
2021/12/02 03:39:01;;;;;;;;;;;5.40;99.90;;;;;;5121059;28;19915;-67
2021/12/02 03:41:27;;;;;;;;;;;5.20;99.90;;;;;;5121188;28;19911;-67
2021/12/02 03:43:52;;;;;;;;;;;5.20;99.90;;;;;;5120514;28;19912;-67
2021/12/02 03:46:19;;;;;;;;;;;5.30;99.90;;;;;;5120440;28;19920;-67
2021/12/02 03:48:45;;;;;;;;;;;5.20;99.90;;;;;;5120995;28;19918;-68
2021/12/02 03:51:11;;;;;;;;;;;5.10;99.90;;;;;;5120854;28;19912;-65
2021/12/02 03:53:37;;;;;;;;;;;5.10;99.90;;;;;;5120324;28;19919;-67
2021/12/02 03:56:06;;;;;;;;;;;5.00;99.90;;;;;;5120928;28;19912;-68
2021/12/02 03:58:32;;;;;;;;;;;5.20;99.90;;;;;;5120169;28;19953;-68
2021/12/02 04:00:58;;;;;;;;;;;5.30;99.90;;;;;;5120081;28;19977;-66
2021/12/02 04:03:24;;;;;;;;;;;5.40;99.90;;;;;;5120091;28;19912;-65
2021/12/02 04:05:50;;;;;;;;;;;5.20;99.90;;;;;;5120954;27;19964;-66
2021/12/02 04:08:16;;;;;;;;;;;5.00;99.90;;;;;;5120089;28;20034;-66
2021/12/02 04:10:43;;;;;;;;;;;5.10;99.90;;;;;;5119844;28;20220;-66
2021/12/02 04:15:38;;;;;;;;;;;5.10;99.90;;;;;;5120537;28;20199;-67
2021/12/02 04:18:03;;;;;;;;;;;5.10;99.90;;;;;;5120829;28;19911;-67
2021/12/02 04:20:29;;;;;;;;;;;5.20;99.90;;;;;;5102748;28;20315;-67
2021/12/02 04:22:58;;;;;;;;;;;5.20;99.90;;;;;;5120895;28;19939;-66
2021/12/02 04:25:25;;;;;;;;;;;5.30;99.90;;;;;;5120349;28;20268;-65
2021/12/02 04:27:51;;;;;;;;;;;5.40;99.90;;;;;;5102572;28;19950;-66
2021/12/02 04:30:18;;;;;;;;;;;5.30;99.90;;;;;;5119902;28;19915;-64
2021/12/02 04:32:44;;;;;;;;;;;5.20;99.90;;;;;;5119470;28;19933;-66
2021/12/02 04:35:11;;;;;;;;;;;5.30;99.90;;;;;;5119764;28;19904;-67
2021/12/02 04:37:37;;;;;;;;;;;5.20;99.90;;;;;;5120352;28;20192;-65
2021/12/02 04:40:03;;;;;;;;;;;5.10;99.90;;;;;;5119985;28;19919;-65
2021/12/02 04:42:29;;;;;;;;;;;5.10;99.90;;;;;;5120107;28;20010;-66
2021/12/02 04:44:55;;;;;;;;;;;5.10;99.90;;;;;;5119214;28;19981;-66
2021/12/02 04:47:21;;;;;;;;;;;4.90;99.90;;;;;;5119922;28;19908;-66
2021/12/02 04:49:46;;;;;;;;;;;4.90;99.90;;;;;;5102124;28;19912;-66
2021/12/02 04:52:13;;;;;;;;;;;4.90;99.90;;;;;;5119296;28;20303;-67
2021/12/02 04:54:39;;;;;;;;;;;4.90;99.90;;;;;;5119809;28;19907;-66
2021/12/02 04:57:05;;;;;;;;;;;5.20;99.90;;;;;;5119765;28;20284;-65
2021/12/02 04:59:31;;;;;;;;;;;5.10;99.90;;;;;;5119688;28;19934;-66
2021/12/02 05:01:57;;;;;;;;;;;5.20;99.90;;;;;;5119583;28;19919;-64
2021/12/02 05:04:22;;;;;;;;;;;5.20;99.90;;;;;;5119175;28;19903;-65
2021/12/02 05:06:48;;;;;;;;;;;5.10;99.90;;;;;;5118882;28;19911;-65
2021/12/02 05:09:14;;;;;;;;;;;5.00;99.90;;;;;;5119848;28;19908;-65
2021/12/02 05:11:39;;;;;;;;;;;4.90;99.90;;;;;;5119464;28;19961;-65
2021/12/02 05:14:08;;;;;;;;;;;5.10;99.90;;;;;;5119468;28;19912;-65
2021/12/02 05:16:37;;;;;;;;;;;5.10;99.90;;;;;;5119343;28;20191;-65
2021/12/02 05:19:03;;;;;;;;;;;5.10;99.90;;;;;;5119388;28;19961;-65
2021/12/02 05:21:29;;;;;;;;;;;5.10;99.90;;;;;;5119370;28;19908;-65
2021/12/02 05:23:54;;;;;;;;;;;5.00;99.90;;;;;;5119173;28;19911;-65
2021/12/02 05:26:21;;;;;;;;;;;5.00;99.90;;;;;;5118524;28;19982;-66
2021/12/02 05:28:47;;;;;;;;;;;5.10;99.90;;;;;;5119300;28;19916;-66
2021/12/02 05:31:13;;;;;;;;;;;5.10;99.90;;;;;;5118946;28;19915;-65
2021/12/02 05:33:38;;;;;;;;;;;5.10;99.90;;;;;;5119121;28;19903;-67
2021/12/02 05:36:04;;;;;;;;;;;5.00;99.90;;;;;;5119000;28;19911;-64
2021/12/02 05:38:30;;;;;;;;;;;4.80;99.90;;;;;;5119000;28;20401;-66
2021/12/02 05:40:55;;;;;;;;;;;4.60;99.90;;;;;;5118649;28;19927;-64
2021/12/02 05:43:21;;;;;;;;;;;4.50;99.90;;;;;;5118777;28;19970;-64
2021/12/02 05:45:47;;;;;;;;;;;4.50;99.90;;;;;;5118806;28;19920;-64
2021/12/02 05:48:12;;;;;;;;;;;4.70;99.90;;;;;;5118746;28;19907;-64
2021/12/02 05:50:41;;;;;;;;;;;4.50;99.90;;;;;;5118470;28;19915;-64
2021/12/02 05:53:07;;;;;;;;;;;4.50;99.90;;;;;;5117850;28;19916;-64
2021/12/02 05:55:32;;;;;;;;;;;4.50;99.90;;;;;;5118583;28;19912;-65
2021/12/02 05:57:58;;;;;;;;;;;4.60;99.90;;;;;;5118789;28;19954;-69
2021/12/02 06:00:24;;;;;;;;;;;4.70;99.90;;;;;;5118613;28;20196;-65
2021/12/02 06:02:50;;;;;;;;;;;4.70;99.90;;;;;;5118513;28;19912;-66
2021/12/02 06:05:19;;;;;;;;;;;4.80;99.90;;;;;;5118360;28;19907;-61
2021/12/02 06:07:46;;;;;;;;;;;4.70;99.90;;;;;;5118369;28;19908;-64
2021/12/02 06:10:11;;;;;;;;;;;4.80;99.90;;;;;;5118615;28;19945;-66
2021/12/02 06:12:37;;;;;;;;;;;4.70;99.90;;;;;;5118162;28;20160;-64
2021/12/02 06:15:03;;;;;;;;;;;4.70;99.90;;;;;;5118279;28;19911;-65
2021/12/02 06:17:28;;;;;;;;;;;4.60;99.90;;;;;;5118216;28;19912;-64
2021/12/02 06:19:54;;;;;;;;;;;4.60;99.90;;;;;;5118085;28;19908;-64
2021/12/02 06:22:20;;;;;;;;;;;4.60;99.90;;;;;;5118271;28;19937;-64
2021/12/02 06:25:05;;;;;;;;;;;4.60;99.90;;;;;;5117232;28;20279;-60
2021/12/02 06:27:31;;;;;;;;;;;4.60;99.90;;;;;;5117637;28;19972;-66
2021/12/02 06:29:57;;;;;;;;;;;4.40;99.90;;;;;;5117949;28;19961;-66
2021/12/02 06:32:22;;;;;;;;;;;4.40;99.90;;;;;;5117324;28;19908;-66
2021/12/02 06:34:48;;;;;;;;;;;4.40;99.90;;;;;;5117938;28;19912;-66
2021/12/02 06:37:13;;;;;;;;;;;4.30;99.90;;;;;;5117884;28;20003;-66
2021/12/02 06:39:39;;;;;;;;;;;4.30;99.90;;;;;;5118042;28;20262;-66
2021/12/02 06:42:05;;;;;;;;;;;4.40;99.90;;;;;;5117904;28;19922;-66
2021/12/02 06:44:32;;;;;;;;;;;4.40;99.90;;;;;;5117095;28;19912;-66
2021/12/02 06:46:58;;;;;;;;;;;4.40;99.90;;;;;;5117793;28;19916;-65
2021/12/02 06:49:24;;;;;;;;;;;4.40;99.90;;;;;;5099964;28;20209;-65
2021/12/02 06:51:50;;;;;;;;;;;4.60;99.90;;;;;;5116867;28;19918;-65
2021/12/02 06:54:15;;;;;;;;;;;4.70;99.90;;;;;;5117200;28;19918;-63
2021/12/02 06:56:41;;;;;;;;;;;4.70;99.90;;;;;;5116956;28;20200;-65
2021/12/02 06:59:07;;;;;;;;;;;4.70;99.90;;;;;;5116880;28;19958;-63
2021/12/02 07:01:33;;;;;;;;;;;4.70;99.90;;;;;;5116916;28;19908;-59
2021/12/02 07:03:58;;;;;;;;;;;4.60;99.90;;;;;;5116925;28;19911;-62
2021/12/02 07:06:24;;;;;;;;;;;4.50;99.90;;;;;;5099993;28;19922;-66
2021/12/02 07:08:50;;;;;;;;;;;4.40;99.90;;;;;;5116769;28;19921;-66
2021/12/02 07:11:15;;;;;;;;;;;4.30;99.90;;;;;;5116570;28;20280;-62
2021/12/02 07:13:41;;;;;;;;;;;4.20;99.90;;;;;;5099854;28;19923;-63
2021/12/02 07:16:07;;;;;;;;;;;4.00;99.90;;;;;;5116832;28;19965;-63
2021/12/02 07:18:37;;;;;;;;;;;4.10;99.90;;;;;;5117527;28;20203;-62
2021/12/02 07:21:03;;;;;;;;;;;4.00;99.90;;;;;;5117511;28;20197;-61
2021/12/02 07:23:29;;;;;;;;;;;4.30;99.90;;;;;;5117661;28;19930;-60
2021/12/02 07:25:56;;;;;;;;;;;4.80;99.90;;;;;;5117330;28;19908;-63
2021/12/02 07:28:22;;;;;;;;;;;4.70;99.90;;;;;;5117402;28;19919;-62
2021/12/02 07:30:52;;;;;;;;;;;4.30;99.90;;;;;;5116398;28;19915;-63
2021/12/02 07:33:18;;;;;;;;;;;4.00;99.90;;;;;;5116439;28;19907;-61
2021/12/02 07:35:44;;;;;;;;;;;3.70;99.90;;;;;;5117161;28;19956;-61
2021/12/02 07:38:10;;;;;;;;;;;3.60;99.90;;;;;;5116602;28;19912;-62
2021/12/02 07:40:36;;;;;;;;;;;3.30;99.90;;;;;;5117223;28;19920;-61
2021/12/02 07:43:03;;;;;;;;;;;3.20;99.90;;;;;;5116604;28;19907;-63
2021/12/02 07:45:35;;;;;;;;;;;3.30;99.90;;;;;;5117236;28;19908;-63
2021/12/02 07:48:03;;;;;;;;;;;3.40;99.90;;;;;;5116674;28;20288;-63
2021/12/02 07:50:28;;;;;;;;;;;3.40;99.90;;;;;;5115996;28;19947;-63
2021/12/02 07:52:55;;;;;;;;;;;3.30;99.90;;;;;;5116771;28;20011;-64
2021/12/02 07:55:22;;;;;;;;;;;3.40;99.90;;;;;;5116821;28;19935;-64
2021/12/02 07:57:47;;;;;;;;;;;3.50;99.90;;;;;;5116817;28;19951;-64
2021/12/02 08:00:14;;;;;;;;;;;3.60;99.90;;;;;;5117213;28;20237;-63
2021/12/02 08:02:44;;;;;;;;;;;3.60;99.90;;;;;;5116976;28;20162;-64
2021/12/02 08:05:10;;;;;;;;;;;3.40;99.90;;;;;;5117254;28;19974;-64
2021/12/02 08:07:39;;;;;;;;;;;3.30;99.90;;;;;;5119475;28;20203;-64
2021/12/02 08:10:06;;;;;;;;;;;3.20;99.90;;;;;;5103234;28;19911;-63
2021/12/02 08:12:33;;;;;;;;;;;3.20;99.90;;;;;;5120533;28;20312;-63
2021/12/02 08:14:58;;;;;;;;;;;3.20;99.90;;;;;;5120376;28;20276;-63
2021/12/02 08:17:24;;;;;;;;;;;3.20;99.90;;;;;;5120258;28;19977;-63
2021/12/02 08:19:50;;;;;;;;;;;3.10;99.90;;;;;;5119434;28;19943;-63
2021/12/02 08:22:15;;;;;;;;;;;3.20;99.90;;;;;;5120130;28;19911;-63
2021/12/02 08:24:41;;;;;;;;;;;3.30;99.90;;;;;;5120236;28;19962;-64
2021/12/02 08:27:07;;;;;;;;;;;3.50;99.90;;;;;;5119361;28;20347;-63
2021/12/02 08:29:32;;;;;;;;;;;3.60;99.90;;;;;;5120470;28;20285;-63
2021/12/02 08:32:00;;;;;;;;;;;3.60;99.90;;;;;;5120043;28;19916;-64
2021/12/02 08:34:27;;;;;;;;;;;3.70;99.90;;;;;;5119894;28;19961;-64
2021/12/02 08:36:55;;;;;;;;;;;3.40;99.90;;;;;;5120080;28;20007;-64
2021/12/02 08:39:40;;;;;;;;;;;3.40;99.90;;;;;;5119847;28;19920;-64
2021/12/02 08:42:08;;;;;;;;;;;3.50;99.90;;;;;;5102327;28;19951;-62
2021/12/02 08:44:37;;;;;;;;;;;3.60;99.90;;;;;;5119990;28;19973;-62
2021/12/02 08:47:04;;;;;;;;;;;3.60;99.90;;;;;;5119854;28;19998;-62
2021/12/02 08:49:30;;;;;;;;;;;3.60;99.90;;;;;;5119083;28;19912;-62
2021/12/02 08:51:55;;;;;;;;;;;3.70;99.90;;;;;;5119588;28;19927;-63
2021/12/02 08:54:21;;;;;;;;;;;3.80;99.90;;;;;;5119796;28;19965;-62
2021/12/02 08:56:47;;;;;;;;;;;3.80;99.90;;;;;;5120123;28;20289;-64
2021/12/02 08:59:14;;;;;;;;;;;4.10;99.90;;;;;;5119515;27;19965;-63
2021/12/02 09:01:40;;;;;;;;;;;4.30;99.90;;;;;;5119915;28;19960;-63
2021/12/02 09:04:05;;;;;;;;;;;4.40;99.90;;;;;;5118962;28;19916;-63
2021/12/02 09:06:32;;;;;;;;;;;4.50;99.90;;;;;;5119496;28;19915;-62
2021/12/02 09:08:58;;;;;;;;;;;4.50;99.90;;;;;;5118788;28;19968;-63
2021/12/02 09:11:26;;;;;;;;;;;4.50;99.90;;;;;;5119625;28;20288;-62
2021/12/02 09:13:56;;;;;;;;;;;4.60;99.90;;;;;;5119388;28;19908;-61
2021/12/02 09:16:22;;;;;;;;;;;4.70;99.90;;;;;;5119405;28;19912;-63
2021/12/02 09:18:48;;;;;;;;;;;4.70;99.90;;;;;;5118995;28;19930;-62
2021/12/02 09:21:14;;;;;;;;;;;4.50;99.90;;;;;;5118488;28;19911;-65
2021/12/02 09:23:40;;;;;;;;;;;4.50;99.90;;;;;;5119246;28;20014;-62
2021/12/02 09:26:05;;;;;;;;;;;4.30;99.90;;;;;;5118427;28;19911;-61
2021/12/02 09:28:31;;;;;;;;;;;4.30;99.90;;;;;;5119170;28;19908;-60
2021/12/02 09:30:57;;;;;;;;;;;4.20;99.90;;;;;;5118975;28;19973;-60
2021/12/02 09:33:22;;;;;;;;;;;4.10;99.90;;;;;;5118380;28;20276;-60
2021/12/02 09:35:48;;;;;;;;;;;4.00;99.90;;;;;;5118180;28;19919;-62
2021/12/02 09:38:14;;;;;;;;;;;4.00;99.90;;;;;;5118924;28;20184;-63
2021/12/02 09:40:41;;;;;;;;;;;3.90;99.90;;;;;;5118753;28;20295;-62
2021/12/02 09:43:10;;;;;;;;;;;3.80;99.90;;;;;;5118797;28;20188;-61
2021/12/02 09:45:37;;;;;;;;;;;3.70;99.90;;;;;;5118643;28;19918;-64
2021/12/02 09:48:03;;;;;;;;;;;3.70;99.90;;;;;;5118879;28;20212;-61
2021/12/02 09:50:32;;;;;;;;;;;3.70;99.90;;;;;;5118706;28;19908;-61
2021/12/02 09:53:06;;;;;;;;;;;3.60;99.90;;;;;;5119198;28;20271;-60
2021/12/02 09:58:20;;;;;;;;;;;3.60;99.90;;;;;;5118829;28;20253;-60
2021/12/02 10:00:54;;;;;;;;;;;3.70;99.90;;;;;;5118186;28;19975;-60
2021/12/02 10:05:56;;;;;;;;;;;3.50;99.90;;;;;;5118468;28;19908;-62
2021/12/02 10:08:23;;;;;;;;;;;3.30;99.90;;;;;;5118342;28;19919;-60
2021/12/02 10:10:55;;;;;;;;;;;3.30;99.90;;;;;;5118314;28;19981;-61
2021/12/02 10:16:06;;;;;;;;;;;3.10;99.90;;;;;;5118250;28;20000;-61
2021/12/02 10:18:35;;;;;;;;;;;3.20;99.90;;;;;;5117387;28;19998;-62
2021/12/02 10:21:24;;;;;;;;;;;3.20;99.90;;;;;;5118145;28;20342;-62
2021/12/02 10:23:49;;;;;;;;;;;3.30;99.90;;;;;;5118804;28;19911;-61
2021/12/02 10:26:18;;;;;;;;;;;3.50;99.90;;;;;;5117935;28;19908;-61
2021/12/02 10:28:44;;;;;;;;;;;3.40;99.90;;;;;;5117595;28;19953;-62
2021/12/02 10:31:11;;;;;;;;;;;3.30;99.90;;;;;;5117854;28;19926;-60
2021/12/02 10:33:39;;;;;;;;;;;3.20;99.90;;;;;;5118550;28;20246;-60
2021/12/02 10:36:21;;;;;;;;;;;3.40;99.90;;;;;;5117140;28;19918;-60
2021/12/02 10:38:47;;;;;;;;;;;3.40;99.90;;;;;;5117828;28;19922;-60
2021/12/02 10:41:17;;;;;;;;;;;3.50;99.90;;;;;;5117828;28;19908;-60
2021/12/02 10:44:01;;;;;;;;;;;3.60;99.90;;;;;;5117724;28;19907;-58
2021/12/02 10:46:27;;;;;;;;;;;3.40;99.90;;;;;;5117814;28;19911;-58
2021/12/02 10:48:53;;;;;;;;;;;3.20;99.90;;;;;;5117018;28;19907;-58
2021/12/02 10:51:37;;;;;;;;;;;3.20;99.90;;;;;;5117497;28;19911;-58
2021/12/02 10:54:04;;;;;;;;;;;3.20;99.90;;;;;;5116690;28;20299;-59
2021/12/02 10:56:37;;;;;;;;;;;3.40;99.90;;;;;;5117598;28;20006;-59
2021/12/02 10:59:23;;;;;;;;;;;3.50;99.90;;;;;;5118078;28;19907;-59
2021/12/02 11:01:49;;;;;;;;;;;3.50;99.90;;;;;;5117573;28;19923;-61
2021/12/02 11:04:14;;;;;;;;;;;3.50;99.90;;;;;;5117552;28;19907;-62
2021/12/02 11:06:41;;;;;;;;;;;3.70;99.90;;;;;;5117558;28;19966;-62
2021/12/02 11:09:26;;;;;;;;;;;4.00;99.90;;;;;;5117585;28;19911;-62
2021/12/02 11:12:06;;;;;;;;;;;4.00;99.90;;;;;;5116522;28;19912;-60
2021/12/02 11:14:32;;;;;;;;;;;4.40;99.90;;;;;;5117531;28;19961;-61
2021/12/02 11:17:08;;;;;;;;;;;4.50;99.90;;;;;;5117530;28;19915;-62
2021/12/02 11:19:34;;;;;;;;;;;4.40;99.90;;;;;;5117912;28;19912;-61
2021/12/02 11:22:04;;;;;;;;;;;4.40;99.90;;;;;;5117354;28;19943;-62
2021/12/02 11:24:33;;;;;;;;;;;4.30;99.90;;;;;;5117387;28;19912;-62
2021/12/02 11:27:25;;;;;;;;;;;4.40;99.90;;;;;;5116543;28;20018;-63
2021/12/02 11:29:54;;;;;;;;;;;4.70;99.90;;;;;;5114370;28;19916;-62
2021/12/02 11:32:37;;;;;;;;;;;4.80;99.90;;;;;;5117152;28;19977;-62
2021/12/02 11:35:15;;;;;;;;;;;4.90;99.90;;;;;;5116483;28;20307;-63
2021/12/02 11:37:42;;;;;;;;;;;4.90;99.90;;;;;;5117413;28;19908;-63
2021/12/02 11:40:13;;;;;;;;;;;5.10;99.90;;;;;;5117741;28;20006;-63
2021/12/02 11:42:39;;;;;;;;;;;5.30;99.90;;;;;;5121290;28;19917;-65
2021/12/02 11:45:05;;;;;;;;;;;5.50;99.90;;;;;;5121573;28;19912;-63
2021/12/02 11:47:31;;;;;;;;;;;5.70;99.90;;;;;;5121166;28;19918;-63
2021/12/02 11:49:57;;;;;;;;;;;5.80;99.90;;;;;;5103447;28;19916;-64
2021/12/02 11:52:23;;;;;;;;;;;5.80;99.90;;;;;;5120639;28;19920;-64
2021/12/02 11:54:48;;;;;;;;;;;5.80;99.90;;;;;;5121003;28;19918;-65
2021/12/02 11:57:14;;;;;;;;;;;6.00;99.90;;;;;;5120815;28;20005;-64
2021/12/02 11:59:40;;;;;;;;;;;6.10;99.90;;;;;;5120218;28;19914;-64
2021/12/02 12:02:06;;;;;;;;;;;6.20;99.90;;;;;;5120834;27;19912;-65
2021/12/02 12:04:35;;;;;;;;;;;6.10;99.90;;;;;;5120828;28;19923;-63
2021/12/02 12:07:11;;;;;;;;;;;6.00;99.90;;;;;;5121113;28;19924;-63
2021/12/02 12:09:37;;;;;;;;;;;6.20;99.90;;;;;;5120754;28;19911;-61
2021/12/02 12:12:03;;;;;;;;;;;6.50;99.90;;;;;;5120699;28;19964;-63
2021/12/02 12:14:37;;;;;;;;;;;6.60;99.90;;;;;;5120689;28;20011;-65
2021/12/02 12:17:12;;;;;;;;;;;6.60;99.90;;;;;;5120869;28;19915;-64
2021/12/02 12:19:42;;;;;;;;;;;6.60;99.90;;;;;;5120586;28;19919;-64
2021/12/02 12:22:13;;;;;;;;;;;6.80;99.90;;;;;;5102624;28;19908;-64
2021/12/02 12:24:55;;;;;;;;;;;6.90;99.90;;;;;;5120640;28;19998;-66
2021/12/02 12:27:31;;;;;;;;;;;6.90;99.90;;;;;;5120456;28;20210;-65
2021/12/02 12:29:56;;;;;;;;;;;7.00;99.90;;;;;;5120283;28;19931;-65
2021/12/02 12:32:31;;;;;;;;;;;7.20;99.90;;;;;;5120491;28;19912;-65
2021/12/02 12:35:04;;;;;;;;;;;7.40;99.90;;;;;;5119550;28;19911;-65
2021/12/02 12:37:48;;;;;;;;;;;7.50;99.90;;;;;;5120460;28;19907;-62
2021/12/02 12:40:25;;;;;;;;;;;7.70;99.90;;;;;;5120047;28;20288;-63
2021/12/02 12:42:57;;;;;;;;;;;7.80;99.90;;;;;;5120162;28;19991;-62
2021/12/02 12:45:30;;;;;;;;;;;7.60;99.90;;;;;;5120000;28;19907;-62
2021/12/02 12:47:58;;;;;;;;;;;7.40;99.90;;;;;;5120064;28;19947;-62
2021/12/02 12:50:29;;;;;;;;;;;7.10;99.90;;;;;;5119246;28;19927;-62
2021/12/02 12:53:17;;;;;;;;;;;6.80;99.90;;;;;;5118216;28;20230;-63
2021/12/02 12:55:52;;;;;;;;;;;6.70;99.90;;;;;;5120420;28;19907;-65
2021/12/02 12:58:26;;;;;;;;;;;6.50;99.90;;;;;;5119850;28;19908;-64
2021/12/02 13:00:54;;;;;;;;;;;6.20;99.90;;;;;;5119034;28;19915;-66
2021/12/02 13:03:31;;;;;;;;;;;5.90;99.90;;;;;;5119683;28;19964;-66
2021/12/02 13:06:10;;;;;;;;;;;5.70;99.90;;;;;;5118670;28;20015;-66
2021/12/02 13:08:47;;;;;;;;;;;5.50;99.90;;;;;;5119633;28;19919;-65
2021/12/02 13:11:24;;;;;;;;;;;5.50;99.90;;;;;;5119486;28;19911;-65
2021/12/02 13:13:50;;;;;;;;;;;5.40;99.90;;;;;;5119258;28;19919;-65
2021/12/02 13:16:16;;;;;;;;;;;5.50;99.90;;;;;;5118579;28;19907;-64
2021/12/02 13:18:51;;;;;;;;;;;5.40;99.90;;;;;;5119396;28;20303;-66
2021/12/02 13:21:35;;;;;;;;;;;5.40;99.90;;;;;;5119347;28;19912;-66
2021/12/02 13:24:01;;;;;;;;;;;5.30;99.90;;;;;;5118540;28;19911;-67
2021/12/02 13:26:28;;;;;;;;;;;5.30;99.90;;;;;;5119219;28;20029;-65
2021/12/02 13:28:59;;;;;;;;;;;5.30;99.90;;;;;;5119028;28;19915;-63
2021/12/02 13:31:26;;;;;;;;;;;5.40;99.90;;;;;;5119004;28;19919;-65
2021/12/02 13:33:59;;;;;;;;;;;5.50;99.90;;;;;;5119156;28;20188;-65
2021/12/02 13:36:31;;;;;;;;;;;5.60;99.90;;;;;;5118981;28;19994;-64
2021/12/02 13:38:58;;;;;;;;;;;5.60;99.90;;;;;;5118795;28;19919;-65
2021/12/02 13:41:24;;;;;;;;;;;5.60;99.90;;;;;;5118903;28;19915;-64
2021/12/02 13:43:53;;;;;;;;;;;5.70;99.90;;;;;;5118190;28;19908;-64
2021/12/02 13:46:27;;;;;;;;;;;5.70;99.90;;;;;;5117900;28;20165;-64
2021/12/02 13:48:53;;;;;;;;;;;5.60;99.90;;;;;;5119116;28;20329;-66
2021/12/02 13:54:16;;;;;;;;;;;5.60;99.90;;;;;;5118646;28;19960;-65
2021/12/02 13:56:42;;;;;;;;;;;5.60;99.90;;;;;;5118701;28;19996;-65
2021/12/02 13:59:16;;;;;;;;;;;5.40;99.90;;;;;;5117937;28;19967;-64
2021/12/02 14:01:48;;;;;;;;;;;5.30;99.90;;;;;;5118730;28;19912;-64
2021/12/02 14:04:14;;;;;;;;;;;5.20;99.90;;;;;;5119055;28;20002;-66
2021/12/02 14:06:39;;;;;;;;;;;5.00;99.90;;;;;;5117740;28;20006;-65
2021/12/02 14:09:16;;;;;;;;;;;4.90;99.90;;;;;;5118687;28;20192;-65
2021/12/02 14:11:43;;;;;;;;;;;4.90;99.90;;;;;;5118354;28;20216;-63
2021/12/02 14:14:15;;;;;;;;;;;4.90;99.90;;;;;;5117573;28;19999;-64
2021/12/02 14:16:41;;;;;;;;;;;4.90;99.90;;;;;;5118359;28;19907;-63
2021/12/02 14:19:13;;;;;;;;;;;5.10;99.90;;;;;;5100558;28;19923;-64
2021/12/02 14:21:38;;;;;;;;;;;5.10;99.90;;;;;;5118085;28;19907;-63
2021/12/02 14:24:04;;;;;;;;;;;5.30;99.90;;;;;;5100326;28;20235;-64
2021/12/02 14:26:30;;;;;;;;;;;5.20;99.90;;;;;;5100236;28;19974;-65
2021/12/02 14:28:58;;;;;;;;;;;5.10;99.90;;;;;;5117754;28;20180;-64
2021/12/02 14:31:34;;;;;;;;;;;5.10;99.90;;;;;;5117162;28;20250;-65
2021/12/02 14:34:01;;;;;;;;;;;5.00;99.90;;;;;;5117949;28;19907;-64
2021/12/02 14:36:28;;;;;;;;;;;4.90;99.90;;;;;;5117987;28;20284;-64
2021/12/02 14:39:04;;;;;;;;;;;4.90;99.90;;;;;;5117839;28;20169;-65
2021/12/02 14:41:36;;;;;;;;;;;5.00;99.90;;;;;;5117827;28;20223;-65
2021/12/02 14:44:07;;;;;;;;;;;5.00;99.90;;;;;;5117964;28;19908;-64
2021/12/02 14:46:37;;;;;;;;;;;5.10;99.90;;;;;;5117235;28;19966;-65
2021/12/02 14:49:10;;;;;;;;;;;5.10;99.90;;;;;;5117056;28;19907;-64
2021/12/02 14:51:43;;;;;;;;;;;5.00;99.90;;;;;;5116926;28;20002;-65
2021/12/02 14:54:10;;;;;;;;;;;5.10;99.90;;;;;;5118201;28;19908;-64
2021/12/02 14:56:36;;;;;;;;;;;5.20;99.90;;;;;;5117660;28;19904;-64
2021/12/02 14:59:05;;;;;;;;;;;5.30;99.90;;;;;;5117681;28;20226;-64
2021/12/02 15:01:31;;;;;;;;;;;5.40;99.90;;;;;;5116855;28;20203;-63
2021/12/02 15:03:57;;;;;;;;;;;5.50;99.90;;;;;;5117724;28;19911;-63
2021/12/02 15:06:36;;;;;;;;;;;5.60;99.90;;;;;;5116813;28;19943;-64